Flight Track Log - Related Links

Times and Time Zones

All times are in EDT time to prevent confusion due to time zone crossing. See the CTL18 flight status page for this flight to view local times or setup timezone preferences in your user account.

Time Position Orientation Groundspeed Altitude Reporting Facility
EDT Latitude Longitude Course Direction KTS MPH feet Rate Location/Type
Thu 07:46:00 PM 43.3904 -84.0180 160° South  Level Estimated
Thu 07:47:00 PM 43.3637 -83.9994 153° Southeast  Level FlightAware Approximate
Thu 07:48:00 PM 43.3371 -83.9809 153° Southeast  Level FlightAware Approximate
Thu 07:49:00 PM 43.3085 -83.9689 160° South  Level Estimated
Thu 07:50:00 PM 43.2809 -83.9532 157° South  Level FlightAware Approximate
Thu 07:51:00 PM 43.2533 -83.9375 157° South  Level FlightAware Approximate
Thu 07:52:00 PM 43.2246 -83.9258 163° South  Level Estimated
Thu 07:53:00 PM 43.1964 -83.9124 161° South  Level FlightAware Approximate
Thu 07:53:55 PM 42.9922 -83.8136 160° South 164 189 5,000  Level Cleveland Center
Thu 07:54:00 PM 43.1682 -83.8990 161° South  Level FlightAware Approximate
Thu 07:55:00 PM 43.1399 -83.8856 161° South  Level FlightAware Approximate
Thu 07:55:02 PM 42.9428 -83.7911 162° South 164 189 5,000  Level Cleveland Center
Thu 07:56:00 PM 43.1113 -83.8741 160° South  Level Estimated
Thu 07:56:09 PM 42.8956 -83.7689 161° South 165 190 5,000  Level Cleveland Center
Thu 07:57:00 PM 43.0832 -83.8599 160° South  Level FlightAware Approximate
Thu 07:57:10 PM 42.8544 -83.7439 156° South 165 190 5,000  Level Cleveland Center
Thu 07:58:00 PM 43.0552 -83.8456 160° South  Level FlightAware Approximate
Thu 07:58:11 PM 42.8111 -83.7306 167° South 162 186 5,100  Level Cleveland Center
Thu 07:59:00 PM 43.0272 -83.8314 160° South  Level FlightAware Approximate
Thu 07:59:12 PM 42.7636 -83.7139 166° South 163 188 5,000  Level Cleveland Center
Thu 08:00:19 PM 42.7142 -83.6944 164° South 166 191 5,000  Level Cleveland Center
Thu 08:01:13 PM 42.6750 -83.6783 163° South 163 188 5,000  Level Cleveland Center
Thu 08:02:15 PM 42.6317 -83.6650 167° South 165 190 5,000 47 Level Cleveland Center
Thu 08:03:22 PM 42.5819 -83.6486 166° South 163 188 5,100 -99 Climbing Cleveland Center
Thu 08:04:16 PM 42.5364 -83.6322 165° South 169 194 4,800 -730 Descending Cleveland Center
Thu 08:05:17 PM 42.4869 -83.6158 166° South 194 223 3,700 -836 Descending Cleveland Center
Thu 08:06:18 PM 42.4394 -83.5967 163° South 174 200 3,100 -410 Descending Cleveland Center
Thu 08:07:14 PM 42.4003 -83.5806 163° South 158 182 2,900 -186 Descending Cleveland Center
Thu 08:08:27 PM 42.3489 -83.5558 160° South 156 180 2,700 -246 Descending Cleveland Center
Thu 08:09:16 PM 42.3139 -83.5400 162° South 160 184 2,400 -466 Descending Cleveland Center
Thu 08:10:23 PM 42.2725 -83.5211 161° South 125 144 1,800 -537 Descending Cleveland Center
Thu 08:12:00 PM 42.2333 -83.5167 160° South  Level FlightAware Approximate
Thu 08:19:00 PM 42.2393 -83.5310 160° South  Level Estimated
Thu 08:20:00 PM 42.2393 -83.5310 160° South  Level Estimated

Login

Don't have an account? Register now (free) for customized features, flight alerts, and more!